sensor_id;sensor_type;location;lat;lon;timestamp;P1;durP1;ratioP1;P2;durP2;ratioP2
7989;SDS011;4040;42.848;23.034;2022-09-09T00:02:10;8.40;;;7.20;;
7989;SDS011;4040;42.848;23.034;2022-09-09T00:08:06;12.07;;;8.85;;
7989;SDS011;4040;42.848;23.034;2022-09-09T00:14:09;10.18;;;8.63;;
7989;SDS011;4040;42.848;23.034;2022-09-09T00:20:06;10.32;;;8.10;;
7989;SDS011;4040;42.848;23.034;2022-09-09T00:26:02;10.07;;;8.07;;
7989;SDS011;4040;42.848;23.034;2022-09-09T00:31:59;11.18;;;8.30;;
7989;SDS011;4040;42.848;23.034;2022-09-09T00:37:58;9.50;;;8.20;;
7989;SDS011;4040;42.848;23.034;2022-09-09T00:43:55;12.82;;;9.73;;
7989;SDS011;4040;42.848;23.034;2022-09-09T00:49:50;11.30;;;9.13;;
7989;SDS011;4040;42.848;23.034;2022-09-09T00:55:48;9.65;;;8.60;;
7989;SDS011;4040;42.848;23.034;2022-09-09T01:01:42;9.95;;;8.38;;
7989;SDS011;4040;42.848;23.034;2022-09-09T01:07:32;9.52;;;7.88;;
7989;SDS011;4040;42.848;23.034;2022-09-09T01:13:22;9.95;;;7.60;;
7989;SDS011;4040;42.848;23.034;2022-09-09T01:19:15;9.73;;;8.20;;
7989;SDS011;4040;42.848;23.034;2022-09-09T01:25:22;13.05;;;8.77;;
7989;SDS011;4040;42.848;23.034;2022-09-09T01:31:18;10.03;;;8.67;;
7989;SDS011;4040;42.848;23.034;2022-09-09T01:37:10;10.33;;;9.07;;
7989;SDS011;4040;42.848;23.034;2022-09-09T01:43:01;9.65;;;8.27;;
7989;SDS011;4040;42.848;23.034;2022-09-09T01:48:52;10.30;;;9.00;;
7989;SDS011;4040;42.848;23.034;2022-09-09T01:54:43;10.38;;;7.97;;
7989;SDS011;4040;42.848;23.034;2022-09-09T02:00:31;10.63;;;8.03;;
7989;SDS011;4040;42.848;23.034;2022-09-09T02:10:49;14.03;;;9.00;;
7989;SDS011;4040;42.848;23.034;2022-09-09T02:16:44;10.07;;;8.40;;
7989;SDS011;4040;42.848;23.034;2022-09-09T02:22:37;9.60;;;8.33;;
7989;SDS011;4040;42.848;23.034;2022-09-09T02:28:29;12.00;;;9.10;;
7989;SDS011;4040;42.848;23.034;2022-09-09T02:34:21;11.90;;;9.30;;
7989;SDS011;4040;42.848;23.034;2022-09-09T02:40:11;12.60;;;9.37;;
7989;SDS011;4040;42.848;23.034;2022-09-09T02:46:07;10.90;;;9.07;;
7989;SDS011;4040;42.848;23.034;2022-09-09T02:52:05;11.60;;;9.07;;
7989;SDS011;4040;42.848;23.034;2022-09-09T02:57:55;10.07;;;8.97;;
7989;SDS011;4040;42.848;23.034;2022-09-09T03:03:48;9.87;;;8.70;;
7989;SDS011;4040;42.848;23.034;2022-09-09T03:13:58;12.30;;;9.00;;
7989;SDS011;4040;42.848;23.034;2022-09-09T03:19:49;11.40;;;8.93;;
7989;SDS011;4040;42.848;23.034;2022-09-09T03:25:39;13.07;;;9.63;;
7989;SDS011;4040;42.848;23.034;2022-09-09T03:31:27;11.17;;;9.67;;
7989;SDS011;4040;42.848;23.034;2022-09-09T03:37:18;10.63;;;8.93;;
7989;SDS011;4040;42.848;23.034;2022-09-09T03:43:07;9.83;;;8.80;;
7989;SDS011;4040;42.848;23.034;2022-09-09T03:48:56;11.97;;;8.93;;
7989;SDS011;4040;42.848;23.034;2022-09-09T03:54:46;11.40;;;8.77;;
7989;SDS011;4040;42.848;23.034;2022-09-09T04:00:35;12.70;;;7.70;;
7989;SDS011;4040;42.848;23.034;2022-09-09T04:06:24;11.30;;;9.17;;
7989;SDS011;4040;42.848;23.034;2022-09-09T04:16:36;11.50;;;9.77;;
7989;SDS011;4040;42.848;23.034;2022-09-09T04:22:25;12.73;;;10.53;;
7989;SDS011;4040;42.848;23.034;2022-09-09T04:28:14;13.37;;;9.57;;
7989;SDS011;4040;42.848;23.034;2022-09-09T04:34:05;13.43;;;10.20;;
7989;SDS011;4040;42.848;23.034;2022-09-09T04:39:54;17.00;;;11.70;;
7989;SDS011;4040;42.848;23.034;2022-09-09T04:45:43;13.60;;;10.77;;
7989;SDS011;4040;42.848;23.034;2022-09-09T04:51:36;15.90;;;12.07;;
7989;SDS011;4040;42.848;23.034;2022-09-09T04:57:25;17.02;;;14.25;;
7989;SDS011;4040;42.848;23.034;2022-09-09T05:03:15;15.45;;;13.65;;
7989;SDS011;4040;42.848;23.034;2022-09-09T05:09:05;16.60;;;14.82;;
7989;SDS011;4040;42.848;23.034;2022-09-09T05:19:16;8.40;;;7.60;;
7989;SDS011;4040;42.848;23.034;2022-09-09T05:25:08;7.28;;;6.22;;
7989;SDS011;4040;42.848;23.034;2022-09-09T05:30:57;8.07;;;5.90;;
7989;SDS011;4040;42.848;23.034;2022-09-09T05:36:47;6.30;;;5.70;;
7989;SDS011;4040;42.848;23.034;2022-09-09T05:42:37;6.68;;;6.00;;
7989;SDS011;4040;42.848;23.034;2022-09-09T05:48:27;6.80;;;6.07;;
7989;SDS011;4040;42.848;23.034;2022-09-09T05:54:18;6.18;;;5.45;;
7989;SDS011;4040;42.848;23.034;2022-09-09T06:00:09;5.97;;;5.20;;
7989;SDS011;4040;42.848;23.034;2022-09-09T06:06:00;6.32;;;5.72;;
7989;SDS011;4040;42.848;23.034;2022-09-09T06:12:12;5.57;;;5.07;;
7989;SDS011;4040;42.848;23.034;2022-09-09T06:22:04;5.05;;;4.65;;
7989;SDS011;4040;42.848;23.034;2022-09-09T06:27:53;4.93;;;4.38;;
7989;SDS011;4040;42.848;23.034;2022-09-09T06:33:42;3.97;;;3.67;;
7989;SDS011;4040;42.848;23.034;2022-09-09T06:39:32;4.28;;;3.88;;
7989;SDS011;4040;42.848;23.034;2022-09-09T06:45:22;5.03;;;4.00;;
7989;SDS011;4040;42.848;23.034;2022-09-09T06:51:11;4.18;;;3.78;;
7989;SDS011;4040;42.848;23.034;2022-09-09T06:57:03;3.97;;;3.65;;
7989;SDS011;4040;42.848;23.034;2022-09-09T07:02:53;4.75;;;4.25;;
7989;SDS011;4040;42.848;23.034;2022-09-09T07:08:42;5.10;;;4.65;;
7989;SDS011;4040;42.848;23.034;2022-09-09T07:24:46;6.22;;;4.32;;
7989;SDS011;4040;42.848;23.034;2022-09-09T07:30:37;7.75;;;4.15;;
7989;SDS011;4040;42.848;23.034;2022-09-09T07:36:27;5.07;;;4.00;;
7989;SDS011;4040;42.848;23.034;2022-09-09T07:42:16;8.95;;;4.47;;
7989;SDS011;4040;42.848;23.034;2022-09-09T07:48:08;5.22;;;4.15;;
7989;SDS011;4040;42.848;23.034;2022-09-09T07:53:58;7.10;;;4.47;;
7989;SDS011;4040;42.848;23.034;2022-09-09T07:59:48;6.75;;;4.35;;
7989;SDS011;4040;42.848;23.034;2022-09-09T08:05:38;7.15;;;4.28;;
7989;SDS011;4040;42.848;23.034;2022-09-09T08:11:29;4.45;;;4.05;;
7989;SDS011;4040;42.848;23.034;2022-09-09T08:17:18;4.68;;;4.00;;
7989;SDS011;4040;42.848;23.034;2022-09-09T08:27:30;4.50;;;4.00;;
7989;SDS011;4040;42.848;23.034;2022-09-09T08:33:18;4.35;;;3.95;;
7989;SDS011;4040;42.848;23.034;2022-09-09T08:39:07;4.07;;;3.67;;
7989;SDS011;4040;42.848;23.034;2022-09-09T08:45:02;4.90;;;3.95;;
7989;SDS011;4040;42.848;23.034;2022-09-09T08:51:07;4.53;;;4.18;;
7989;SDS011;4040;42.848;23.034;2022-09-09T08:56:56;6.55;;;4.72;;
7989;SDS011;4040;42.848;23.034;2022-09-09T09:02:48;4.45;;;4.05;;
7989;SDS011;4040;42.848;23.034;2022-09-09T09:08:51;4.90;;;4.38;;
7989;SDS011;4040;42.848;23.034;2022-09-09T09:14:48;4.82;;;4.30;;
7989;SDS011;4040;42.848;23.034;2022-09-09T09:20:40;4.80;;;4.40;;
7989;SDS011;4040;42.848;23.034;2022-09-09T09:26:34;4.40;;;3.97;;
7989;SDS011;4040;42.848;23.034;2022-09-09T09:32:23;4.70;;;4.28;;
7989;SDS011;4040;42.848;23.034;2022-09-09T09:38:18;6.72;;;4.75;;
7989;SDS011;4040;42.848;23.034;2022-09-09T09:44:20;5.40;;;4.82;;
7989;SDS011;4040;42.848;23.034;2022-09-09T09:50:18;6.85;;;4.78;;
7989;SDS011;4040;42.848;23.034;2022-09-09T09:56:10;5.88;;;4.93;;
7989;SDS011;4040;42.848;23.034;2022-09-09T10:02:20;5.93;;;5.40;;
7989;SDS011;4040;42.848;23.034;2022-09-09T10:08:12;7.50;;;5.43;;
7989;SDS011;4040;42.848;23.034;2022-09-09T10:14:05;10.32;;;6.47;;
7989;SDS011;4040;42.848;23.034;2022-09-09T10:30:43;9.98;;;6.10;;
7989;SDS011;4040;42.848;23.034;2022-09-09T10:36:37;6.35;;;5.72;;
7989;SDS011;4040;42.848;23.034;2022-09-09T10:42:32;7.13;;;5.47;;
7989;SDS011;4040;42.848;23.034;2022-09-09T10:51:25;6.65;;;5.80;;
7989;SDS011;4040;42.848;23.034;2022-09-09T10:57:21;6.43;;;5.82;;
7989;SDS011;4040;42.848;23.034;2022-09-09T11:03:19;6.80;;;6.10;;
7989;SDS011;4040;42.848;23.034;2022-09-09T11:09:14;6.30;;;5.70;;
7989;SDS011;4040;42.848;23.034;2022-09-09T11:15:08;6.30;;;5.70;;
7989;SDS011;4040;42.848;23.034;2022-09-09T11:21:12;6.82;;;6.13;;
7989;SDS011;4040;42.848;23.034;2022-09-09T11:30:52;5.85;;;5.22;;
7989;SDS011;4040;42.848;23.034;2022-09-09T11:36:59;6.80;;;5.80;;
7989;SDS011;4040;42.848;23.034;2022-09-09T11:43:07;8.05;;;5.90;;
7989;SDS011;4040;42.848;23.034;2022-09-09T11:49:01;6.28;;;5.68;;
7989;SDS011;4040;42.848;23.034;2022-09-09T11:54:51;5.68;;;5.07;;
7989;SDS011;4040;42.848;23.034;2022-09-09T12:00:42;6.30;;;5.70;;
7989;SDS011;4040;42.848;23.034;2022-09-09T12:06:41;7.78;;;5.60;;
7989;SDS011;4040;42.848;23.034;2022-09-09T12:12:33;5.97;;;5.10;;
7989;SDS011;4040;42.848;23.034;2022-09-09T12:18:23;6.30;;;5.50;;
7989;SDS011;4040;42.848;23.034;2022-09-09T12:24:15;7.45;;;5.10;;
7989;SDS011;4040;42.848;23.034;2022-09-09T12:34:14;6.18;;;5.57;;
7989;SDS011;4040;42.848;23.034;2022-09-09T12:40:18;5.53;;;4.90;;
7989;SDS011;4040;42.848;23.034;2022-09-09T12:46:10;5.97;;;5.38;;
7989;SDS011;4040;42.848;23.034;2022-09-09T12:52:15;5.45;;;4.95;;
7989;SDS011;4040;42.848;23.034;2022-09-09T12:58:12;5.60;;;5.10;;
7989;SDS011;4040;42.848;23.034;2022-09-09T13:04:15;5.40;;;4.88;;
7989;SDS011;4040;42.848;23.034;2022-09-09T13:10:10;12.77;;;10.50;;
7989;SDS011;4040;42.848;23.034;2022-09-09T13:16:02;5.45;;;4.88;;
7989;SDS011;4040;42.848;23.034;2022-09-09T13:21:54;15.35;;;12.10;;
7989;SDS011;4040;42.848;23.034;2022-09-09T13:27:51;6.32;;;5.03;;
7989;SDS011;4040;42.848;23.034;2022-09-09T13:33:43;6.72;;;6.03;;
7989;SDS011;4040;42.848;23.034;2022-09-09T13:39:32;6.85;;;5.35;;
7989;SDS011;4040;42.848;23.034;2022-09-09T13:45:24;6.13;;;5.57;;
7989;SDS011;4040;42.848;23.034;2022-09-09T13:51:26;6.05;;;5.45;;
7989;SDS011;4040;42.848;23.034;2022-09-09T13:57:26;5.28;;;4.78;;
7989;SDS011;4040;42.848;23.034;2022-09-09T14:03:15;4.47;;;3.70;;
7989;SDS011;4040;42.848;23.034;2022-09-09T14:09:05;4.18;;;3.75;;
7989;SDS011;4040;42.848;23.034;2022-09-09T14:14:55;4.65;;;4.07;;
7989;SDS011;4040;42.848;23.034;2022-09-09T14:20:44;4.22;;;3.83;;
7989;SDS011;4040;42.848;23.034;2022-09-09T14:26:34;4.82;;;3.33;;
7989;SDS011;4040;42.848;23.034;2022-09-09T14:36:35;5.05;;;3.90;;
7989;SDS011;4040;42.848;23.034;2022-09-09T14:42:25;5.65;;;4.05;;
7989;SDS011;4040;42.848;23.034;2022-09-09T14:48:16;4.88;;;3.80;;
7989;SDS011;4040;42.848;23.034;2022-09-09T14:54:05;4.25;;;3.53;;
7989;SDS011;4040;42.848;23.034;2022-09-09T14:59:55;5.68;;;4.20;;
7989;SDS011;4040;42.848;23.034;2022-09-09T15:05:44;5.20;;;3.90;;
7989;SDS011;4040;42.848;23.034;2022-09-09T15:11:34;5.90;;;4.20;;
7989;SDS011;4040;42.848;23.034;2022-09-09T15:17:26;7.03;;;5.60;;
7989;SDS011;4040;42.848;23.034;2022-09-09T15:23:15;6.65;;;5.03;;
7989;SDS011;4040;42.848;23.034;2022-09-09T15:29:04;6.63;;;4.95;;
7989;SDS011;4040;42.848;23.034;2022-09-09T15:39:17;6.55;;;4.45;;
7989;SDS011;4040;42.848;23.034;2022-09-09T15:45:07;7.00;;;5.10;;
7989;SDS011;4040;42.848;23.034;2022-09-09T15:51:00;7.90;;;6.18;;
7989;SDS011;4040;42.848;23.034;2022-09-09T15:56:53;12.23;;;7.57;;
7989;SDS011;4040;42.848;23.034;2022-09-09T16:02:42;12.95;;;6.85;;
7989;SDS011;4040;42.848;23.034;2022-09-09T16:08:32;9.30;;;5.65;;
7989;SDS011;4040;42.848;23.034;2022-09-09T16:14:22;9.15;;;6.30;;
7989;SDS011;4040;42.848;23.034;2022-09-09T16:20:11;6.35;;;5.72;;
7989;SDS011;4040;42.848;23.034;2022-09-09T16:26:01;7.55;;;6.00;;
7989;SDS011;4040;42.848;23.034;2022-09-09T16:31:51;32.63;;;20.33;;
7989;SDS011;4040;42.848;23.034;2022-09-09T16:42:03;7.43;;;4.72;;
7989;SDS011;4040;42.848;23.034;2022-09-09T16:47:53;6.25;;;4.53;;
7989;SDS011;4040;42.848;23.034;2022-09-09T16:54:03;5.72;;;4.28;;
7989;SDS011;4040;42.848;23.034;2022-09-09T16:59:54;5.18;;;4.68;;
7989;SDS011;4040;42.848;23.034;2022-09-09T17:05:47;8.13;;;4.93;;
7989;SDS011;4040;42.848;23.034;2022-09-09T17:11:36;8.55;;;5.88;;
7989;SDS011;4040;42.848;23.034;2022-09-09T17:17:27;10.45;;;6.45;;
7989;SDS011;4040;42.848;23.034;2022-09-09T17:23:17;8.23;;;6.75;;
7989;SDS011;4040;42.848;23.034;2022-09-09T17:29:06;10.35;;;7.05;;
7989;SDS011;4040;42.848;23.034;2022-09-09T17:34:54;11.13;;;7.82;;
7989;SDS011;4040;42.848;23.034;2022-09-09T17:45:07;11.48;;;7.20;;
7989;SDS011;4040;42.848;23.034;2022-09-09T17:50:57;10.43;;;5.45;;
7989;SDS011;4040;42.848;23.034;2022-09-09T17:56:46;5.20;;;4.68;;
7989;SDS011;4040;42.848;23.034;2022-09-09T18:02:37;6.05;;;4.45;;
7989;SDS011;4040;42.848;23.034;2022-09-09T18:08:25;11.13;;;7.18;;
7989;SDS011;4040;42.848;23.034;2022-09-09T18:14:17;7.32;;;5.28;;
7989;SDS011;4040;42.848;23.034;2022-09-09T18:20:09;6.82;;;4.20;;
7989;SDS011;4040;42.848;23.034;2022-09-09T18:25:58;6.00;;;4.32;;
7989;SDS011;4040;42.848;23.034;2022-09-09T18:31:47;5.35;;;4.63;;
7989;SDS011;4040;42.848;23.034;2022-09-09T18:37:37;8.30;;;4.63;;
7989;SDS011;4040;42.848;23.034;2022-09-09T18:47:48;5.75;;;4.38;;
7989;SDS011;4040;42.848;23.034;2022-09-09T18:53:38;4.45;;;3.90;;
7989;SDS011;4040;42.848;23.034;2022-09-09T18:59:28;5.55;;;4.35;;
7989;SDS011;4040;42.848;23.034;2022-09-09T19:05:17;7.47;;;4.40;;
7989;SDS011;4040;42.848;23.034;2022-09-09T19:11:08;5.43;;;4.38;;
7989;SDS011;4040;42.848;23.034;2022-09-09T19:16:58;6.05;;;4.25;;
7989;SDS011;4040;42.848;23.034;2022-09-09T19:22:47;5.05;;;4.10;;
7989;SDS011;4040;42.848;23.034;2022-09-09T19:28:37;6.32;;;4.22;;
7989;SDS011;4040;42.848;23.034;2022-09-09T19:34:27;6.55;;;5.20;;
7989;SDS011;4040;42.848;23.034;2022-09-09T19:40:16;5.95;;;4.55;;
7989;SDS011;4040;42.848;23.034;2022-09-09T19:50:30;6.00;;;4.60;;
7989;SDS011;4040;42.848;23.034;2022-09-09T19:56:23;5.70;;;4.63;;
7989;SDS011;4040;42.848;23.034;2022-09-09T20:02:13;8.85;;;5.68;;
7989;SDS011;4040;42.848;23.034;2022-09-09T20:08:03;8.10;;;5.00;;
7989;SDS011;4040;42.848;23.034;2022-09-09T20:13:52;5.07;;;4.57;;
7989;SDS011;4040;42.848;23.034;2022-09-09T20:19:41;6.15;;;5.28;;
7989;SDS011;4040;42.848;23.034;2022-09-09T20:25:31;6.57;;;4.53;;
7989;SDS011;4040;42.848;23.034;2022-09-09T20:31:23;7.93;;;4.90;;
7989;SDS011;4040;42.848;23.034;2022-09-09T20:37:14;6.93;;;5.30;;
7989;SDS011;4040;42.848;23.034;2022-09-09T20:43:05;7.43;;;5.32;;
7989;SDS011;4040;42.848;23.034;2022-09-09T20:53:16;9.13;;;6.00;;
7989;SDS011;4040;42.848;23.034;2022-09-09T20:59:06;22.83;;;17.27;;
7989;SDS011;4040;42.848;23.034;2022-09-09T21:04:57;8.80;;;7.35;;
7989;SDS011;4040;42.848;23.034;2022-09-09T21:10:47;7.18;;;5.72;;
7989;SDS011;4040;42.848;23.034;2022-09-09T21:16:38;8.23;;;5.30;;
7989;SDS011;4040;42.848;23.034;2022-09-09T21:22:27;5.45;;;4.88;;
7989;SDS011;4040;42.848;23.034;2022-09-09T21:28:18;6.90;;;5.60;;
7989;SDS011;4040;42.848;23.034;2022-09-09T21:34:08;7.25;;;5.95;;
7989;SDS011;4040;42.848;23.034;2022-09-09T21:39:58;5.82;;;5.15;;
7989;SDS011;4040;42.848;23.034;2022-09-09T21:45:47;6.70;;;5.75;;
7989;SDS011;4040;42.848;23.034;2022-09-09T21:56:03;7.63;;;4.75;;
7989;SDS011;4040;42.848;23.034;2022-09-09T22:08:34;11.82;;;6.18;;
7989;SDS011;4040;42.848;23.034;2022-09-09T22:14:23;7.75;;;5.47;;
7989;SDS011;4040;42.848;23.034;2022-09-09T22:20:13;10.32;;;6.75;;
7989;SDS011;4040;42.848;23.034;2022-09-09T22:26:03;7.13;;;5.95;;
7989;SDS011;4040;42.848;23.034;2022-09-09T22:31:53;6.82;;;5.72;;
7989;SDS011;4040;42.848;23.034;2022-09-09T22:37:42;7.00;;;6.00;;
7989;SDS011;4040;42.848;23.034;2022-09-09T22:43:32;7.20;;;6.20;;
7989;SDS011;4040;42.848;23.034;2022-09-09T22:49:20;8.82;;;6.35;;
7989;SDS011;4040;42.848;23.034;2022-09-09T22:55:10;8.18;;;5.60;;
7989;SDS011;4040;42.848;23.034;2022-09-09T23:00:59;6.70;;;6.00;;
7989;SDS011;4040;42.848;23.034;2022-09-09T23:06:54;7.90;;;5.93;;
7989;SDS011;4040;42.848;23.034;2022-09-09T23:12:43;7.07;;;6.38;;
7989;SDS011;4040;42.848;23.034;2022-09-09T23:18:34;8.63;;;6.70;;
7989;SDS011;4040;42.848;23.034;2022-09-09T23:24:25;9.45;;;6.80;;
7989;SDS011;4040;42.848;23.034;2022-09-09T23:30:14;9.50;;;6.78;;
7989;SDS011;4040;42.848;23.034;2022-09-09T23:36:06;8.57;;;6.90;;
7989;SDS011;4040;42.848;23.034;2022-09-09T23:41:58;7.70;;;6.05;;
7989;SDS011;4040;42.848;23.034;2022-09-09T23:47:46;10.02;;;6.80;;
7989;SDS011;4040;42.848;23.034;2022-09-09T23:53:37;7.63;;;6.47;;
7989;SDS011;4040;42.848;23.034;2022-09-09T23:59:28;7.15;;;5.95;;
